Aérodrome :
LOGIN :

S'inscrire | Disclaimer

   EN    FR    IT 

 










Légende :    VFR   VFR Marginal   IFR   IFR Intensif   IFR Très Intensif
Visi : 
Plafond : 
>= 8 km
>= 3000ft
5 à 8 km
1000 à 3000 ft
1500m à 5 km
500 à 1000 ft
800 à 1500m
200 à 500 ft
< 800m
< 200 ft
Symboles :   Orages  Brouillard  Fortes neiges  Fortes précipitations  Vent > 20 kt
SIGMETs :   Divers  Orages  Givrage  Turbulence  Onde Orograph.  Cendres Volcan.







- Altitude de l'aérodrome : 144 ft
- Code IATA : PGF
- Voir les cartes d'approche


LFMP - Perpignan

DERNIER METAR :
  • 301230Z AUTO 19019G31KT 9999 NCD 21/09 Q1004 NOSIG

METARs EXPIRÉS :
  • 301200Z AUTO 18019KT 9999 NCD 21/10 Q1004 TEMPO 18025G40KT
  • 301130Z AUTO 18021G32KT 9999 NCD 21/09 Q1005 NOSIG
  • 301100Z AUTO 18021KT 9999 NCD 22/09 Q1005 TEMPO 18025G40KT
  • 301030Z AUTO 18020KT 150V210 9999 NCD 21/10 Q1005 TEMPO 18025G40KT
  • 301000Z AUTO 18018G28KT 140V210 9999 NCD 21/09 Q1005 TEMPO 18025G40KT
  • 300930Z AUTO 18020KT 9999 NCD 19/09 Q1006 TEMPO 18025G40KT

TAF TAF LFMP
Valide du 30 à 09h jusqu'au 01 à 09h UTC


300800Z 3009/0109 16015KT CAVOK
TEMPO 3009/3016 18025G40KT
BECMG 3016/3018 30020KT
TEMPO 3016/3019 30030G45KT RA BKN030TCU
PROB30
TEMPO 3016/3020 3000 TSRA BR BKN010 SCT030CB
BECMG 3020/3022 30010KT
TEMPO 3020/3023 -RA BKN015
BECMG 3023/0101 CAVOK
ATIS : +33 4 68 63 75 12
Pas de NOTAMs connus pour ce terrain.
1 SIGMET publié pour la FIR Marseille (LFMM) :
 
Turbulence forte
LFMM SIGMET 3 VALID 301200/301600 LFPW
LFMM MARSEILLE FIR/UIR SEV TURB FCST WI N4230 E00230 - N4630 E00300 - N4630 E00500 - N4430 E00445 - N4215 E00315 - N4215 E00230 SFC/FL070 STNR NC=



MET'MAP, la Météo Aéronautique d'un coup d'oeil ! - Copyright ORBIFLY Décembre 2007 - Disclaimer

ORBIFLY MET'MAP TEAM :

Programmation & Développement : Alexandra Zaïnal
Conception & Développement : Baudouin d'Aumeries
Co-Programmation & Développement : Marc-Olivier Méhu
Soutien technique & logistique : Manuel Goepfert

Contact : metmap@orbifly.com




SOURCES & CREDITS :

   NOAA